Time;durP1;ratioP1;P1;durP2;ratioP2;P2;SDS_P1;SDS_P2;PMS_P1;PMS_P2;Temp;Humidity;BMP_temperature;BMP_pressure;BME280_temperature;BME280_humidity;BME280_pressure;Samples;Min_cycle;Max_cycle;Signal;HPM_P1;HPM_P2
2022/06/13 00:02:44;0.00;0.00;0.62;0.00;0.00;0.62;2.73;1.90;;;28.10;25.70;;;;;;2255975;61;20373;-57
2022/06/13 00:05:29;0.00;0.00;0.62;0.00;0.00;0.62;2.37;1.67;;;28.20;25.70;;;;;;2256288;61;20373;-62
2022/06/13 00:08:14;0.00;0.00;0.62;0.00;0.00;0.62;3.30;2.03;;;28.20;25.70;;;;;;2255744;61;20807;-61
2022/06/13 00:11:00;0.00;0.00;0.62;0.00;0.00;0.62;2.97;2.17;;;28.20;25.70;;;;;;2256095;61;20358;-62
2022/06/13 00:13:51;0.00;0.00;0.62;0.00;0.00;0.62;5.30;2.20;;;28.20;26.20;;;;;;2255181;61;20382;-58
2022/06/13 00:16:37;0.00;0.00;0.62;0.00;0.00;0.62;5.97;2.07;;;28.20;25.70;;;;;;2255490;61;20366;-59
2022/06/13 00:19:23;0.00;0.00;0.62;0.00;0.00;0.62;3.60;2.00;;;28.20;25.70;;;;;;2256452;61;20425;-60
2022/06/13 00:22:07;0.00;0.00;0.62;0.00;0.00;0.62;3.00;1.50;;;28.20;25.70;;;;;;2255644;61;20776;-60
2022/06/13 00:24:53;0.00;0.00;0.62;0.00;0.00;0.62;3.30;1.40;;;28.20;25.70;;;;;;2255736;61;20405;-60
2022/06/13 00:27:38;0.00;0.00;0.62;0.00;0.00;0.62;4.20;2.03;;;28.30;25.70;;;;;;2256295;61;20893;-59
2022/06/13 00:30:26;0.00;0.00;0.62;0.00;0.00;0.62;3.73;2.90;;;28.30;25.70;;;;;;2255385;61;20405;-59
2022/06/13 00:33:11;0.00;0.00;0.62;0.00;0.00;0.62;3.63;2.20;;;28.30;25.70;;;;;;2256150;61;20370;-63
2022/06/13 00:35:56;0.00;0.00;0.62;0.00;0.00;0.62;3.87;2.57;;;28.30;25.70;;;;;;2255422;61;20416;-61
2022/06/13 00:38:41;0.00;0.00;0.62;0.00;0.00;0.62;2.60;1.93;;;28.30;25.70;;;;;;2255565;61;20377;-60
2022/06/13 00:41:31;0.00;0.00;0.62;0.00;0.00;0.62;3.40;2.00;;;28.30;25.70;;;;;;2256588;61;20423;-57
2022/06/13 00:44:21;0.00;0.00;0.62;0.00;0.00;0.62;2.80;1.57;;;28.30;26.20;;;;;;2255188;61;20381;-60
2022/06/13 00:47:10;0.00;0.00;0.62;0.00;0.00;0.62;2.67;2.00;;;28.30;25.70;;;;;;2256067;61;20361;-60
2022/06/13 00:49:55;0.00;0.00;0.62;0.00;0.00;0.62;5.50;2.00;;;28.30;25.60;;;;;;2255644;61;20478;-60
2022/06/13 00:52:46;0.00;0.00;0.62;0.00;0.00;0.62;2.97;2.00;;;28.30;25.70;;;;;;2255367;61;20361;-60
2022/06/13 00:55:36;0.00;0.00;0.62;0.00;0.00;0.62;3.27;1.83;;;28.30;25.70;;;;;;2254285;61;20405;-60
2022/06/13 00:58:22;0.00;0.00;0.62;0.00;0.00;0.62;4.20;2.17;;;28.30;25.60;;;;;;2254610;61;20775;-60
2022/06/13 01:01:08;0.00;0.00;0.62;0.00;0.00;0.62;3.30;2.00;;;28.30;25.60;;;;;;2255145;61;20402;-58
2022/06/13 01:03:56;0.00;0.00;0.62;0.00;0.00;0.62;5.10;2.20;;;28.30;25.60;;;;;;2254643;61;20397;-58
2022/06/13 01:06:45;0.00;0.00;0.62;0.00;0.00;0.62;3.17;1.90;;;28.30;25.60;;;;;;2253848;61;20930;-60
2022/06/13 01:12:37;0.00;0.00;0.62;0.00;0.00;0.62;3.23;2.10;;;28.30;26.10;;;;;;2255062;61;20370;-58
2022/06/13 01:15:46;0.00;0.00;0.62;0.00;0.00;0.62;3.60;2.60;;;28.30;25.60;;;;;;2253998;61;20405;-62
2022/06/13 01:19:00;0.00;0.00;0.62;0.00;0.00;0.62;4.00;2.73;;;28.30;25.60;;;;;;2255678;61;20370;-63
2022/06/13 01:21:55;0.00;0.00;0.62;0.00;0.00;0.62;4.33;2.47;;;28.30;25.60;;;;;;2254629;61;20370;-62
2022/06/13 01:25:29;0.00;0.00;0.62;0.00;0.00;0.62;4.60;2.30;;;28.30;25.60;;;;;;2254973;61;20374;-61
2022/06/13 01:29:00;0.00;0.00;0.62;0.00;0.00;0.62;3.03;2.00;;;28.30;25.60;;;;;;2254634;61;20362;-61
2022/06/13 01:31:53;0.00;0.00;0.62;0.00;0.00;0.62;3.57;1.77;;;28.30;25.60;;;;;;2253044;61;20380;-61
2022/06/13 01:34:53;0.00;0.00;0.62;0.00;0.00;0.62;3.10;2.13;;;28.20;25.50;;;;;;2254981;61;20366;-60
2022/06/13 01:37:51;0.00;0.00;0.62;0.00;0.00;0.62;3.93;2.40;;;28.20;26.10;;;;;;2254845;61;20389;-62
2022/06/13 01:40:55;0.00;0.00;0.62;0.00;0.00;0.62;7.50;3.20;;;28.20;25.60;;;;;;2255432;61;20382;-60
2022/06/13 01:43:53;0.00;0.00;0.62;0.00;0.00;0.62;4.93;2.70;;;28.20;25.50;;;;;;2254331;61;20779;-62
2022/06/13 01:46:43;0.00;0.00;0.62;0.00;0.00;0.62;4.00;2.13;;;28.20;25.60;;;;;;2254917;61;20362;-62
2022/06/13 01:49:37;0.00;0.00;0.62;0.00;0.00;0.62;3.87;2.40;;;28.20;25.60;;;;;;2255391;61;20857;-59
2022/06/13 01:52:29;0.00;0.00;0.62;0.00;0.00;0.62;4.83;2.33;;;28.10;26.10;;;;;;2327679;53;20354;-60
2022/06/13 01:55:22;0.00;0.00;0.62;0.00;0.00;0.62;4.40;2.53;;;28.00;25.60;;;;;;2258392;61;20481;-62
2022/06/13 01:58:13;0.00;0.00;0.62;0.00;0.00;0.62;5.43;2.70;;;28.00;25.60;;;;;;2257828;61;20909;-60
2022/06/13 02:01:08;0.00;0.00;0.62;0.00;0.00;0.62;6.50;3.57;;;27.90;25.70;;;;;;2259006;61;20358;-63
2022/06/13 02:04:02;0.00;0.00;0.62;0.00;0.00;0.62;6.67;3.20;;;27.80;25.70;;;;;;2258335;61;20368;-61
2022/06/13 02:07:02;0.00;0.00;0.62;0.00;0.00;0.62;4.47;2.97;;;27.80;25.70;;;;;;2259396;61;20748;-60
2022/06/13 02:09:54;0.00;0.00;0.62;0.00;0.00;0.62;6.70;3.00;;;27.70;25.80;;;;;;2260535;61;20415;-59
2022/06/13 02:12:41;0.00;0.00;0.62;0.00;0.00;0.62;5.80;3.13;;;27.70;25.90;;;;;;2260197;61;20409;-61
2022/06/13 02:15:32;0.00;0.00;0.62;0.00;0.00;0.62;5.90;3.17;;;27.60;25.90;;;;;;2259852;61;20885;-60
2022/06/13 02:18:24;0.00;0.00;0.62;0.00;0.00;0.62;5.30;2.97;;;27.50;26.00;;;;;;2258873;61;20383;-59
2022/06/13 02:21:14;0.00;0.00;0.62;0.00;0.00;0.62;4.60;2.60;;;27.40;26.00;;;;;;2259438;61;20496;-62
2022/06/13 02:24:01;0.00;0.00;0.62;0.00;0.00;0.62;6.03;2.80;;;27.40;26.10;;;;;;2259427;61;20766;-60
2022/06/13 02:26:51;0.00;0.00;0.62;0.00;0.00;0.62;6.97;3.20;;;27.40;26.10;;;;;;2259960;61;20412;-60
2022/06/13 02:29:44;0.00;0.00;0.62;0.00;0.00;0.62;5.57;3.23;;;27.40;26.20;;;;;;2259044;61;20454;-61
2022/06/13 02:32:35;0.00;0.00;0.62;0.00;0.00;0.62;5.60;3.67;;;27.40;26.20;;;;;;2260543;61;20365;-59
2022/06/13 02:35:26;0.00;0.00;0.62;0.00;0.00;0.62;4.43;2.80;;;27.30;26.30;;;;;;2259256;61;20365;-61
2022/06/13 02:38:17;0.00;0.00;0.62;0.00;0.00;0.62;4.30;2.90;;;27.20;26.20;;;;;;2260480;61;20376;-62
2022/06/13 02:41:12;0.00;0.00;0.62;0.00;0.00;0.62;8.07;3.20;;;27.20;26.30;;;;;;2260431;61;20360;-64
2022/06/13 02:44:02;0.00;0.00;0.62;0.00;0.00;0.62;8.30;3.30;;;27.10;26.30;;;;;;2259834;61;20384;-62
2022/06/13 02:46:54;0.00;0.00;0.62;0.00;0.00;0.62;8.20;4.60;;;27.10;26.30;;;;;;2261105;61;20420;-62
2022/06/13 02:49:44;0.00;0.00;0.62;0.00;0.00;0.62;4.00;2.90;;;27.00;26.40;;;;;;2256802;61;20845;-59
2022/06/13 02:52:35;0.00;0.00;0.62;0.00;0.00;0.62;7.53;4.33;;;27.00;26.50;;;;;;2260022;61;20372;-57
2022/06/13 02:55:20;0.00;0.00;0.62;0.00;0.00;0.62;6.37;3.37;;;26.90;26.60;;;;;;2260377;61;20944;-60
2022/06/13 02:58:23;0.00;0.00;0.62;0.00;0.00;0.62;6.00;3.10;;;26.90;26.70;;;;;;2259955;61;20361;-61
2022/06/13 03:01:17;0.00;0.00;0.62;0.00;0.00;0.62;4.60;2.60;;;26.90;26.80;;;;;;2260326;61;20365;-61
2022/06/13 03:04:10;0.00;0.00;0.62;0.00;0.00;0.62;5.23;2.87;;;26.80;26.80;;;;;;2259853;61;20361;-66
2022/06/13 03:07:06;0.00;0.00;0.62;0.00;0.00;0.62;3.70;2.80;;;26.80;26.80;;;;;;2259872;61;20408;-58
2022/06/13 03:09:55;0.00;0.00;0.62;0.00;0.00;0.62;5.73;3.20;;;26.80;26.80;;;;;;2261030;61;20389;-61
2022/06/13 03:12:51;0.00;0.00;0.62;0.00;0.00;0.62;4.20;3.10;;;26.80;26.90;;;;;;2259713;61;20400;-63
2022/06/13 03:15:47;0.00;0.00;0.62;0.00;0.00;0.62;5.40;3.00;;;26.80;26.90;;;;;;2260232;61;20816;-60
2022/06/13 03:18:39;0.00;0.00;0.62;0.00;0.00;0.62;5.57;3.30;;;26.80;26.90;;;;;;2256998;61;20500;-61
2022/06/13 03:21:32;0.00;0.00;0.62;0.00;0.00;0.62;6.17;3.33;;;26.80;26.80;;;;;;2259721;61;20369;-61
2022/06/13 03:24:22;0.00;0.00;0.62;0.00;0.00;0.62;5.20;3.30;;;26.70;26.80;;;;;;2260473;61;20388;-61
2022/06/13 03:27:16;0.00;0.00;0.62;0.00;0.00;0.62;3.90;2.67;;;26.70;26.80;;;;;;2259792;61;20361;-61
2022/06/13 03:30:08;0.00;0.00;0.62;0.00;0.00;0.62;4.83;2.90;;;26.60;26.80;;;;;;2260251;61;20388;-60
2022/06/13 03:36:07;0.00;0.00;0.62;0.00;0.00;0.62;5.33;2.57;;;26.50;27.00;;;;;;2259820;61;20412;-63
2022/06/13 03:38:58;0.00;0.00;0.62;0.00;0.00;0.62;4.80;2.90;;;26.40;27.60;;;;;;2260658;61;20920;-63
2022/06/13 03:41:49;0.00;0.00;0.62;0.00;0.00;0.62;5.30;2.90;;;26.40;27.10;;;;;;2259891;61;20405;-59
2022/06/13 03:44:43;0.00;0.00;0.62;0.00;0.00;0.62;6.50;2.70;;;26.40;27.10;;;;;;2260058;61;20357;-61
2022/06/13 03:47:33;0.00;0.00;0.62;0.00;0.00;0.62;7.60;3.10;;;26.30;27.20;;;;;;2256968;61;20362;-61
2022/06/13 03:50:25;0.00;0.00;0.62;0.00;0.00;0.62;5.83;3.77;;;26.30;27.20;;;;;;2256456;61;20389;-59
2022/06/13 03:53:17;0.00;0.00;0.62;0.00;0.00;0.62;4.23;2.90;;;26.30;27.20;;;;;;2260507;61;20377;-61
2022/06/13 03:56:09;0.00;0.00;0.62;0.00;0.00;0.62;4.47;3.00;;;26.30;27.20;;;;;;2261480;61;20392;-61
2022/06/13 03:59:03;0.00;0.00;0.62;0.00;0.00;0.62;4.57;2.70;;;26.30;27.20;;;;;;2261979;61;20388;-61
2022/06/13 04:01:55;0.00;0.00;0.62;0.00;0.00;0.62;6.80;3.97;;;26.20;27.20;;;;;;2259051;61;20377;-61
2022/06/13 04:04:44;0.00;0.00;0.62;0.00;0.00;0.62;4.90;3.40;;;26.20;27.00;;;;;;2259633;61;20369;-60
2022/06/13 04:07:35;0.00;0.00;0.62;0.00;0.00;0.62;3.97;3.27;;;26.20;27.00;;;;;;2260432;61;20365;-61
2022/06/13 04:10:23;0.00;0.00;0.62;0.00;0.00;0.62;5.60;3.30;;;26.10;27.00;;;;;;2257043;61;20473;-66
2022/06/13 04:13:26;0.00;0.00;0.62;0.00;0.00;0.62;3.70;3.07;;;26.00;27.00;;;;;;2259753;61;20361;-58
2022/06/13 04:16:40;0.00;0.00;0.62;0.00;0.00;0.62;4.87;2.67;;;26.00;27.20;;;;;;2260521;61;20769;-59
2022/06/13 04:19:42;0.00;0.00;0.62;0.00;0.00;0.62;5.90;3.23;;;25.90;27.20;;;;;;2260390;61;20384;-59
2022/06/13 04:22:40;0.00;0.00;0.62;0.00;0.00;0.62;5.00;3.33;;;25.90;27.20;;;;;;2257960;61;20369;-56
2022/06/13 04:25:33;0.00;0.00;0.62;0.00;0.00;0.62;7.00;3.60;;;25.80;27.30;;;;;;2260549;61;20415;-57
2022/06/13 04:28:24;0.00;0.00;0.62;0.00;0.00;0.62;5.13;2.57;;;25.70;27.20;;;;;;2257036;61;20453;-61
2022/06/13 04:31:11;0.00;0.00;0.62;0.00;0.00;0.62;7.53;3.03;;;25.70;27.30;;;;;;2257868;61;20923;-58
2022/06/13 04:34:02;0.00;0.00;0.62;0.00;0.00;0.62;4.20;2.93;;;25.60;27.40;;;;;;2260138;61;20365;-59
2022/06/13 04:36:49;0.00;0.00;0.62;0.00;0.00;0.62;6.50;4.20;;;25.50;27.30;;;;;;2260783;61;20365;-57
2022/06/13 04:39:38;0.00;0.00;0.62;0.00;0.00;0.62;4.43;2.90;;;25.50;27.30;;;;;;2260555;61;20788;-61
2022/06/13 04:42:24;0.00;0.00;0.62;0.00;0.00;0.62;6.57;3.20;;;25.40;27.40;;;;;;2260030;61;20419;-57
2022/06/13 04:45:20;0.00;0.00;0.62;0.00;0.00;0.62;8.40;3.30;;;25.30;27.40;;;;;;2260962;61;20372;-60
2022/06/13 04:48:08;0.00;0.00;0.62;0.00;0.00;0.62;10.10;3.13;;;25.20;27.50;;;;;;2260735;61;20476;-59
2022/06/13 04:50:56;0.00;0.00;0.62;0.00;0.00;0.62;7.53;2.97;;;25.10;27.60;;;;;;2254387;61;20412;-59
2022/06/13 04:53:53;0.00;0.00;0.62;0.00;0.00;0.62;5.30;2.83;;;25.10;27.80;;;;;;2261250;61;20362;-59
2022/06/13 04:56:39;0.00;0.00;0.62;0.00;0.00;0.62;5.70;2.77;;;25.00;27.90;;;;;;2260132;61;20404;-59
2022/06/13 04:59:24;0.00;0.00;0.62;0.00;0.00;0.62;4.30;2.13;;;25.00;28.00;;;;;;2260831;61;20948;-58
2022/06/13 05:02:15;0.00;0.00;0.62;0.00;0.00;0.62;5.40;3.00;;;25.00;28.10;;;;;;2254789;61;20896;-56
2022/06/13 05:05:00;0.00;0.00;0.62;0.00;0.00;0.62;5.30;2.67;;;25.00;28.10;;;;;;2260208;61;20908;-55
2022/06/13 05:07:45;0.00;0.00;0.62;0.00;0.00;0.62;4.17;2.57;;;25.00;28.10;;;;;;2260897;61;20365;-57
2022/06/13 05:10:33;0.00;0.00;0.62;0.00;0.00;0.62;4.20;3.00;;;25.00;28.10;;;;;;2260199;61;20455;-54
2022/06/13 05:13:21;0.00;0.00;0.62;0.00;0.00;0.62;10.70;4.53;;;25.00;28.10;;;;;;2260596;61;20388;-58
2022/06/13 05:16:21;0.00;0.00;0.62;0.00;0.00;0.62;6.73;3.33;;;25.00;28.20;;;;;;2261136;61;20495;-58
2022/06/13 05:19:35;0.00;0.00;0.62;0.00;0.00;0.62;7.33;3.60;;;24.90;28.00;;;;;;2260115;61;20389;-59
2022/06/13 05:22:48;0.00;0.00;0.62;0.00;0.00;0.62;5.33;3.47;;;24.90;28.30;;;;;;2261154;61;20408;-56
2022/06/13 05:25:43;0.00;0.00;0.62;0.00;0.00;0.62;7.67;3.27;;;24.80;28.10;;;;;;2259380;61;20369;-60
2022/06/13 05:28:34;0.00;0.00;0.62;0.00;0.00;0.62;7.37;3.53;;;24.80;28.10;;;;;;2257164;61;20361;-60
2022/06/13 05:31:19;0.00;0.00;0.62;0.00;0.00;0.62;8.47;3.00;;;24.70;28.10;;;;;;2260521;61;20477;-58
2022/06/13 05:34:07;0.00;0.00;0.62;0.00;0.00;0.62;7.10;3.40;;;24.70;28.20;;;;;;2259928;61;20422;-59
2022/06/13 05:36:54;0.00;0.00;0.62;0.00;0.00;0.62;5.00;2.93;;;24.60;28.30;;;;;;2257606;61;20412;-58
2022/06/13 05:39:39;0.00;0.00;0.62;0.00;0.00;0.62;5.23;3.40;;;24.60;28.30;;;;;;2256954;61;20472;-58
2022/06/13 05:42:24;0.00;0.00;0.62;0.00;0.00;0.62;5.60;2.87;;;24.60;28.40;;;;;;2259948;61;20534;-58
2022/06/13 05:45:13;0.00;0.00;0.62;0.00;0.00;0.62;5.90;3.30;;;24.60;28.40;;;;;;2260863;61;20893;-58
2022/06/13 05:48:00;0.00;0.00;0.62;0.00;0.00;0.62;5.03;4.03;;;24.60;28.50;;;;;;2259152;61;20446;-59
2022/06/13 05:50:44;0.00;0.00;0.62;0.00;0.00;0.62;5.10;2.90;;;24.60;28.50;;;;;;2259840;61;20921;-56
2022/06/13 05:53:29;0.00;0.00;0.62;0.00;0.00;0.62;6.50;2.50;;;24.60;28.40;;;;;;2257335;61;20455;-58
2022/06/13 05:56:15;0.00;0.00;0.62;0.00;0.00;0.62;6.37;2.73;;;24.60;28.50;;;;;;2256963;61;20780;-58
2022/06/13 05:59:00;0.00;0.00;0.62;0.00;0.00;0.62;7.37;3.40;;;24.50;28.40;;;;;;2257887;61;20385;-58
2022/06/13 06:01:46;0.00;0.00;0.62;0.00;0.00;0.62;6.50;3.60;;;24.50;28.50;;;;;;2260556;61;20407;-59
2022/06/13 06:04:30;0.00;0.00;0.62;0.00;0.00;0.62;7.87;3.00;;;24.50;28.60;;;;;;2260447;61;20369;-60
2022/06/13 06:07:15;0.00;0.00;0.62;0.00;0.00;0.62;5.53;2.93;;;24.50;28.50;;;;;;2261422;61;20415;-56
2022/06/13 06:10:01;0.00;0.00;0.62;0.00;0.00;0.62;5.00;2.77;;;24.50;28.60;;;;;;2256681;61;20413;-61
2022/06/13 06:12:45;0.00;0.00;0.62;0.00;0.00;0.62;7.60;3.00;;;24.50;28.60;;;;;;2261122;61;20415;-60
2022/06/13 06:15:30;0.00;0.00;0.62;0.00;0.00;0.62;7.30;3.40;;;24.50;28.70;;;;;;2260504;61;20389;-61
2022/06/13 06:18:18;0.00;0.00;0.62;0.00;0.00;0.62;7.00;3.40;;;24.50;28.70;;;;;;2257072;61;20369;-60
2022/06/13 06:21:04;0.00;0.00;0.62;0.00;0.00;0.62;7.13;3.57;;;24.50;28.80;;;;;;2261804;61;20369;-57
2022/06/13 06:23:49;0.00;0.00;0.62;0.00;0.00;0.62;4.33;3.00;;;24.50;28.80;;;;;;2262653;61;20388;-58
2022/06/13 06:26:34;0.00;0.00;0.62;0.00;0.00;0.62;10.00;3.90;;;24.50;28.80;;;;;;2259774;61;20360;-57
2022/06/13 06:29:18;0.00;0.00;0.62;0.00;0.00;0.62;6.60;2.93;;;24.50;28.90;;;;;;2260460;61;20381;-61
2022/06/13 06:32:05;0.00;0.00;0.62;0.00;0.00;0.62;6.90;3.37;;;24.50;28.90;;;;;;2260019;61;20365;-60
2022/06/13 06:34:51;0.00;0.00;0.62;0.00;0.00;0.62;8.00;3.10;;;24.50;29.40;;;;;;2260051;61;20780;-60
2022/06/13 06:37:38;0.00;0.00;0.62;0.00;0.00;0.62;6.20;3.30;;;24.50;28.90;;;;;;2260348;61;20369;-60
2022/06/13 06:40:25;0.00;0.00;0.62;0.00;0.00;0.62;8.77;3.70;;;24.50;29.00;;;;;;2259779;61;20920;-61
2022/06/13 06:43:11;0.00;0.00;0.62;0.00;0.00;0.62;4.63;2.70;;;24.50;29.10;;;;;;2259710;61;20360;-62
2022/06/13 06:45:56;0.00;0.00;0.62;0.00;0.00;0.62;5.87;3.57;;;24.50;29.10;;;;;;2240262;61;1198591;-62
2022/06/13 06:48:42;0.00;0.00;0.62;0.00;0.00;0.62;4.90;3.20;;;24.50;29.20;;;;;;2259655;61;20837;-64
2022/06/13 06:51:29;0.00;0.00;0.62;0.00;0.00;0.62;4.87;2.83;;;24.50;29.10;;;;;;2260657;61;20917;-65
2022/06/13 07:00:21;0.00;0.00;0.62;0.00;0.00;0.62;4.67;2.67;;;24.50;29.30;;;;;;2260032;61;20933;-63
2022/06/13 07:03:06;0.00;0.00;0.62;0.00;0.00;0.62;6.27;2.83;;;24.60;29.40;;;;;;2259652;61;20933;-66
2022/06/13 07:05:52;0.00;0.00;0.62;0.00;0.00;0.62;5.63;2.70;;;24.60;29.40;;;;;;2260413;61;20369;-66
2022/06/13 07:08:38;0.00;0.00;0.62;0.00;0.00;0.62;4.90;2.80;;;24.60;29.40;;;;;;2256957;61;20361;-69
2022/06/13 07:14:40;0.00;0.00;0.62;0.00;0.00;0.62;3.63;2.40;;;24.70;29.30;;;;;;2244182;61;20795;-61
2022/06/13 07:17:26;0.00;0.00;0.62;0.00;0.00;0.62;7.33;3.07;;;24.70;29.20;;;;;;2245948;61;20369;-65
2022/06/13 07:20:12;0.00;0.00;0.62;0.00;0.00;0.62;6.43;3.00;;;24.70;29.20;;;;;;2263642;61;20396;-64
2022/06/13 07:22:57;0.00;0.00;0.62;0.00;0.00;0.62;6.90;3.70;;;24.70;29.20;;;;;;2262563;61;20360;-63
2022/06/13 07:25:43;0.00;0.00;0.62;0.00;0.00;0.62;5.80;2.93;;;24.80;29.20;;;;;;2261979;61;20954;-65
2022/06/13 07:28:28;0.00;0.00;0.62;0.00;0.00;0.62;6.30;3.20;;;24.80;29.10;;;;;;2261714;61;20534;-62
2022/06/13 07:31:19;0.00;0.00;0.62;0.00;0.00;0.62;6.17;3.30;;;24.80;29.00;;;;;;2261964;61;20396;-62
2022/06/13 07:34:06;0.00;0.00;0.62;0.00;0.00;0.62;5.43;3.00;;;24.90;29.00;;;;;;2262853;61;20365;-66
2022/06/13 07:36:54;0.00;0.00;0.62;0.00;0.00;0.62;6.10;3.63;;;24.90;28.90;;;;;;2258376;61;20357;-62
2022/06/13 07:39:39;0.00;0.00;0.62;0.00;0.00;0.62;5.90;2.80;;;24.90;28.90;;;;;;2253998;61;20473;-66
2022/06/13 07:42:25;0.00;0.00;0.62;0.00;0.00;0.62;4.27;2.63;;;24.90;28.80;;;;;;2260540;61;20365;-66
2022/06/13 07:45:15;0.00;0.00;0.62;0.00;0.00;0.62;5.77;2.53;;;24.90;28.80;;;;;;2259490;61;20368;-65
2022/06/13 07:48:00;0.00;0.00;0.62;0.00;0.00;0.62;6.27;2.70;;;25.00;28.90;;;;;;2259846;61;20369;-65
2022/06/13 07:50:45;0.00;0.00;0.62;0.00;0.00;0.62;6.17;3.07;;;25.00;28.80;;;;;;2260446;61;20392;-66
2022/06/13 07:53:30;0.00;0.00;0.62;0.00;0.00;0.62;6.33;3.37;;;25.00;28.80;;;;;;2259827;61;20392;-65
2022/06/13 07:56:20;0.00;0.00;0.62;0.00;0.00;0.62;5.13;2.60;;;25.00;28.70;;;;;;2260491;61;20384;-68
2022/06/13 07:59:08;0.00;0.00;0.62;0.00;0.00;0.62;5.50;2.87;;;25.00;29.20;;;;;;2257772;61;20944;-68
2022/06/13 08:01:53;0.00;0.00;0.62;0.00;0.00;0.62;6.47;2.60;;;25.00;28.60;;;;;;2260455;61;20623;-67
2022/06/13 08:04:38;0.00;0.00;0.62;0.00;0.00;0.62;5.47;3.30;;;25.10;28.60;;;;;;2257376;61;20776;-65
2022/06/13 08:07:23;0.00;0.00;0.62;0.00;0.00;0.62;3.57;2.70;;;25.10;28.50;;;;;;2260103;61;20492;-65
2022/06/13 08:10:09;0.00;0.00;0.62;0.00;0.00;0.62;3.47;2.60;;;25.10;28.50;;;;;;2259540;61;20431;-66
2022/06/13 08:12:55;0.00;0.00;0.62;0.00;0.00;0.62;3.83;2.50;;;25.10;28.40;;;;;;2257143;61;20403;-66
2022/06/13 08:15:42;0.00;0.00;0.62;0.00;0.00;0.62;4.63;2.50;;;25.10;28.40;;;;;;2259680;61;20462;-65
2022/06/13 08:18:28;0.00;0.00;0.62;0.00;0.00;0.62;6.53;3.63;;;25.10;28.40;;;;;;2259792;61;20361;-68
2022/06/13 08:21:13;0.00;0.00;0.62;0.00;0.00;0.62;4.73;2.30;;;25.10;28.30;;;;;;2260481;61;20360;-62
2022/06/13 08:23:58;0.00;0.00;0.62;0.00;0.00;0.62;4.40;2.40;;;25.10;28.30;;;;;;2259512;61;20361;-65
2022/06/13 08:26:43;0.00;0.00;0.62;0.00;0.00;0.62;3.57;2.67;;;25.10;28.30;;;;;;2257045;61;20411;-67
2022/06/13 08:29:28;0.00;0.00;0.62;0.00;0.00;0.62;4.60;2.60;;;25.10;28.30;;;;;;2259343;61;20924;-65
2022/06/13 08:32:15;0.00;0.00;0.62;0.00;0.00;0.62;4.40;2.40;;;25.20;28.40;;;;;;2259904;61;20380;-67
2022/06/13 08:35:00;0.00;0.00;0.62;0.00;0.00;0.62;5.03;2.10;;;25.20;28.30;;;;;;2260479;61;20411;-71
2022/06/13 08:37:45;0.00;0.00;0.62;0.00;0.00;0.62;5.40;2.80;;;25.20;28.20;;;;;;2259552;61;20748;-67
2022/06/13 08:40:39;0.00;0.00;0.62;0.00;0.00;0.62;4.33;2.63;;;25.20;28.00;;;;;;2260190;61;20384;-61
2022/06/13 08:44:08;0.00;0.00;0.62;0.00;0.00;0.62;4.47;2.40;;;25.30;28.00;;;;;;2260131;61;20453;-64
2022/06/13 08:47:02;0.00;0.00;0.62;0.00;0.00;0.62;7.73;2.80;;;25.30;27.90;;;;;;2259607;61;20380;-65
2022/06/13 08:50:00;0.00;0.00;0.62;0.00;0.00;0.62;4.17;2.40;;;25.30;27.90;;;;;;2260113;61;20384;-61
2022/06/13 08:52:54;0.00;0.00;0.62;0.00;0.00;0.62;3.33;2.30;;;25.30;27.90;;;;;;2259496;61;20365;-63
2022/06/13 08:55:44;0.00;0.00;0.62;0.00;0.00;0.62;6.73;2.13;;;25.40;27.80;;;;;;2256804;61;20881;-63
2022/06/13 08:58:36;0.00;0.00;0.62;0.00;0.00;0.62;5.23;2.23;;;25.40;27.80;;;;;;2253939;61;20361;-65
2022/06/13 09:01:30;0.00;0.00;0.62;0.00;0.00;0.62;3.37;1.93;;;25.40;27.70;;;;;;2259904;61;20376;-65
2022/06/13 09:04:21;0.00;0.00;0.62;0.00;0.00;0.62;3.57;2.20;;;25.40;27.80;;;;;;2259977;61;20893;-63
2022/06/13 09:07:15;0.00;0.00;0.62;0.00;0.00;0.62;4.10;2.30;;;25.50;27.80;;;;;;2259774;61;20912;-63
2022/06/13 09:10:05;0.00;0.00;0.62;0.00;0.00;0.62;2.97;2.20;;;25.50;27.80;;;;;;2259631;61;20393;-64
2022/06/13 09:12:56;0.00;0.00;0.62;0.00;0.00;0.62;5.23;2.30;;;25.50;27.70;;;;;;2260184;61;20405;-65
2022/06/13 09:15:46;0.00;0.00;0.62;0.00;0.00;0.62;5.63;2.53;;;25.50;27.70;;;;;;2259224;61;20359;-63
2022/06/13 09:18:40;0.00;0.00;0.62;0.00;0.00;0.62;5.00;2.37;;;25.50;27.70;;;;;;2259842;61;20368;-62
2022/06/13 09:21:41;0.00;0.00;0.62;0.00;0.00;0.62;4.60;2.70;;;25.60;27.70;;;;;;2259833;61;20361;-63
2022/06/13 09:24:35;0.00;0.00;0.62;0.00;0.00;0.62;3.83;1.80;;;25.60;27.60;;;;;;2253201;61;20368;-64
2022/06/13 09:27:28;0.00;0.00;0.62;0.00;0.00;0.62;5.20;2.27;;;25.70;27.60;;;;;;2260002;61;20789;-64
2022/06/13 09:30:19;0.00;0.00;0.62;0.00;0.00;0.62;2.43;1.90;;;25.70;27.50;;;;;;2259308;61;20428;-65
2022/06/13 09:33:10;0.00;0.00;0.62;0.00;0.00;0.62;3.23;1.73;;;25.70;27.50;;;;;;2259738;61;20703;-62
2022/06/13 09:35:58;0.00;0.00;0.62;0.00;0.00;0.62;3.53;2.13;;;25.70;27.50;;;;;;2260096;61;20361;-56
2022/06/13 09:38:48;0.00;0.00;0.62;0.00;0.00;0.62;2.47;1.83;;;25.80;27.40;;;;;;2259297;61;20373;-61
2022/06/13 09:41:58;0.00;0.00;0.62;0.00;0.00;0.62;7.63;1.90;;;25.80;27.40;;;;;;2260538;61;20361;-61
2022/06/13 09:45:09;0.00;0.00;0.62;0.00;0.00;0.62;7.20;2.60;;;25.80;27.40;;;;;;2261063;61;20423;-62
2022/06/13 09:48:06;0.00;0.00;0.62;0.00;0.00;0.62;3.67;1.80;;;25.90;27.30;;;;;;2261617;61;20423;-62
2022/06/13 09:50:59;0.00;0.00;0.62;0.00;0.00;0.62;3.30;2.07;;;25.90;27.20;;;;;;2257939;61;20400;-60
2022/06/13 09:53:52;0.00;0.00;0.62;0.00;0.00;0.62;2.53;1.70;;;25.90;27.00;;;;;;2260290;61;20373;-66
2022/06/13 09:56:49;0.00;0.00;0.62;0.00;0.00;0.62;3.20;1.50;;;25.90;26.80;;;;;;2261026;61;20448;-67
2022/06/13 09:59:50;0.00;0.00;0.62;0.00;0.00;0.62;2.93;1.70;;;25.90;26.80;;;;;;2259154;61;20959;-64
2022/06/13 10:02:48;0.00;0.00;0.62;0.00;0.00;0.62;3.30;1.73;;;25.90;26.70;;;;;;2259418;61;20412;-62
2022/06/13 10:05:38;0.00;0.00;0.62;0.00;0.00;0.62;2.90;2.23;;;25.90;26.80;;;;;;2259695;61;20787;-64
2022/06/13 10:08:55;0.00;0.00;0.62;0.00;0.00;0.62;2.93;1.20;;;25.90;26.90;;;;;;2259268;61;20412;-65
2022/06/13 10:11:52;0.00;0.00;0.62;0.00;0.00;0.62;2.13;1.40;;;25.90;26.90;;;;;;2260091;61;20439;-64
2022/06/13 10:14:54;0.00;0.00;0.62;0.00;0.00;0.62;2.97;1.63;;;25.90;27.00;;;;;;2259158;61;20887;-64
2022/06/13 10:18:10;0.00;0.00;0.62;0.00;0.00;0.62;2.60;1.80;;;25.90;27.10;;;;;;2259901;61;20368;-66
2022/06/13 10:21:00;0.00;0.00;0.62;0.00;0.00;0.62;2.23;1.30;;;25.90;27.00;;;;;;2259140;61;20424;-65
2022/06/13 10:23:56;0.00;0.00;0.62;0.00;0.00;0.62;3.40;1.67;;;26.00;26.80;;;;;;2259128;61;20908;-59
2022/06/13 10:26:54;0.00;0.00;0.62;0.00;0.00;0.62;3.50;1.90;;;26.00;26.80;;;;;;2256687;61;20403;-62
2022/06/13 10:30:07;0.00;0.00;0.62;0.00;0.00;0.62;2.83;1.57;;;26.00;26.80;;;;;;2259223;61;20385;-64
2022/06/13 10:33:24;0.00;0.00;0.62;0.00;0.00;0.62;2.07;1.60;;;26.00;26.80;;;;;;2259809;61;20412;-64
2022/06/13 10:36:17;0.00;0.00;0.62;0.00;0.00;0.62;2.00;1.63;;;26.00;26.80;;;;;;2259057;61;20345;-64
2022/06/13 10:39:06;0.00;0.00;0.62;0.00;0.00;0.62;2.77;1.60;;;26.00;26.80;;;;;;2260595;61;20380;-63
2022/06/13 10:42:01;0.00;0.00;0.62;0.00;0.00;0.62;3.90;1.80;;;26.00;26.80;;;;;;2260619;61;20356;-64
2022/06/13 10:44:45;0.00;0.00;0.62;0.00;0.00;0.62;3.83;2.33;;;26.00;26.80;;;;;;2259864;61;20353;-64
2022/06/13 10:47:39;0.00;0.00;0.62;0.00;0.00;0.62;2.10;1.60;;;26.10;26.80;;;;;;2260237;61;20449;-65
2022/06/13 10:50:31;0.00;0.00;0.62;0.00;0.00;0.62;3.27;1.60;;;26.00;26.80;;;;;;2259913;61;20436;-63
2022/06/13 10:53:21;0.00;0.00;0.62;0.00;0.00;0.62;2.43;1.47;;;26.10;26.90;;;;;;2259823;61;20396;-61
2022/06/13 10:56:11;0.00;0.00;0.62;0.00;0.00;0.62;2.40;1.43;;;26.10;26.90;;;;;;2260604;61;20771;-63
2022/06/13 10:58:59;0.00;0.00;0.62;0.00;0.00;0.62;2.87;1.97;;;26.10;26.90;;;;;;2259752;61;20405;-62
2022/06/13 11:01:54;0.00;0.00;0.62;0.00;0.00;0.62;3.20;1.83;;;26.10;27.00;;;;;;2260094;61;20373;-63
2022/06/13 11:04:40;0.00;0.00;0.62;0.00;0.00;0.62;2.43;1.80;;;26.20;27.00;;;;;;2260217;61;20419;-63
2022/06/13 11:07:25;0.00;0.00;0.62;0.00;0.00;0.62;3.27;2.07;;;26.20;27.10;;;;;;2259812;61;20361;-66
2022/06/13 11:10:29;0.00;0.00;0.62;0.00;0.00;0.62;2.40;1.60;;;26.20;27.10;;;;;;2260906;61;20403;-62
2022/06/13 11:13:22;0.00;0.00;0.62;0.00;0.00;0.62;3.67;2.10;;;26.20;27.10;;;;;;2260243;61;20503;-63
2022/06/13 11:22:37;0.00;0.00;0.62;0.00;0.00;0.62;2.60;1.87;;;26.30;27.30;;;;;;2260477;61;20385;-64
2022/06/13 11:22:57;0.00;0.00;0.62;0.00;0.00;0.62;2.43;2.07;;;26.30;27.20;;;;;;2260035;61;20412;-61
2022/06/13 11:25:43;0.00;0.00;0.62;0.00;0.00;0.62;3.30;1.97;;;26.30;27.00;;;;;;2257451;61;20411;-62
2022/06/13 11:28:37;0.00;0.00;0.62;0.00;0.00;0.62;6.57;2.10;;;26.30;26.90;;;;;;2260040;61;20365;-62
2022/06/13 11:31:26;0.00;0.00;0.62;0.00;0.00;0.62;2.73;1.87;;;26.30;26.90;;;;;;2260465;61;20796;-62
2022/06/13 11:34:28;0.00;0.00;0.62;0.00;0.00;0.62;2.53;1.70;;;26.30;27.00;;;;;;2260303;61;20423;-63
2022/06/13 11:37:20;0.00;0.00;0.62;0.00;0.00;0.62;4.40;1.83;;;26.30;27.10;;;;;;2259951;61;20457;-62